Terminal Aerodrome Forecast
Issued by NWS Denver/Boulder, CO

Home | Current Version | Previous Version | Text Only | Print | Product List | Glossary On
Versions: 1 2 3 4 5 6 7 8 9 10 11 12 13 14 15 16 17 18 19 20 21 22 23 24 25 26 27 28 29 30 31 32 33 34 35 36 37 38 39 40 41 42 43 44 45 46 47 48 49 50
583
FTUS45 KBOU 240611 AAC
TAFDEN
TAF AMD
KDEN 240611Z 2406/2512 36025G35KT P6SM TS SCT012 BKN020CB OVC040
     FM240700 36025G35KT 5SM -SHRASN SCT012 BKN020 OVC040
      TEMPO 2407/2409 2SM -RASN BR BKN012
     FM240900 36022G40KT 2SM -SN BLSN BR SCT003 OVC006
      TEMPO 2410/2414 1/2SM SN BLSN VV003
     FM241500 35022G35KT 3SM -SN BR OVC015
     FM241800 03012KT P6SM VCSH SCT025 BKN060
     FM242100 09008KT P6SM FEW040 SCT100
     FM250200 18007KT P6SM FEW100
     FM250500 20008KT P6SM FEW250=

USA.gov is the U.S. government's official web portal to all federal, state and local government web resources and services.